Cooperative Ambassador — WDB9871 — position and weather

sailwx.info

Track history (hours):
 
Tides and Currents Weather Stations Pressure Air Temp Water Temp Dewpoint Dewpoint Depression Visibility Wind Speed Wind Dir Waves Ship Positions

Cooperative Ambassador

Owner: American River Transportation Company, St Louis, MO. More information available from US FCC via Universal Licensing System and Coast Guard Vessel Documentation Center.

Last reported at 2017-Jan-17 19:12 UTC. Time now 2017-Mar-24 10:24 UTC.
Position N 38°59' W 090°33'.
Warning: this ship's position is months out of date.

Length 43 m.

Type: Towing. MMSI: 366984260.

Date/timePositionNaut miles runAvg speedWind from/ knotsBaromVisibWave heightAir tempDewpointWater temp
2017-Jan-17 19:12N 38°59' W 090°33'3 4.1
2017-Jan-17 18:33N 38°57' W 090°31'4 3.9
2017-Jan-17 17:33N 38°58' W 090°26'5 4.5
2017-Jan-17 16:33N 38°56' W 090°20'2 1.3
2017-Jan-17 15:15N 38°55' W 090°19'4 0.1
2017-Jan-15 13:14N 38°55' W 090°14'0 0.1
2017-Jan-15 12:25N 38°55' W 090°13'0 0.0
2017-Jan-15 11:33N 38°55' W 090°13'0 0.0
2017-Jan-15 10:29N 38°55' W 090°13'0 0.0
2017-Jan-15 09:24N 38°55' W 090°13'0 0.0
2017-Jan-15 08:28N 38°55' W 090°13'0 0.0
2017-Jan-15 07:31N 38°55' W 090°13'0 0.0
2017-Jan-15 06:29N 38°55' W 090°13'0 0.0
2017-Jan-15 05:33N 38°55' W 090°13'0 0.0
2017-Jan-15 04:33N 38°55' W 090°13'0 0.0
2017-Jan-15 03:33N 38°55' W 090°13'0 0.0
2017-Jan-15 02:33N 38°55' W 090°13'0 0.0
2017-Jan-15 01:20N 38°55' W 090°13'0 0.0
2017-Jan-15 00:33N 38°55' W 090°13'0 0.0
2017-Jan-14 23:33N 38°55' W 090°13'0 0.0
2017-Jan-14 22:33N 38°55' W 090°13'0 0.0
2017-Jan-14 21:33N 38°55' W 090°13'0 0.0
2017-Jan-14 20:32N 38°55' W 090°13'0 0.0
2017-Jan-14 18:11N 38°55' W 090°13'0 0.0
2017-Jan-14 16:23N 38°55' W 090°13'0 0.0
2017-Jan-14 15:33N 38°55' W 090°13'0 0.0
2017-Jan-14 14:32N 38°55' W 090°13'0 0.0
2017-Jan-14 13:33N 38°55' W 090°13'0 0.0
2017-Jan-14 12:32N 38°55' W 090°13'0 0.0
2017-Jan-14 11:31N 38°55' W 090°13'0 0.0
2017-Jan-14 10:33N 38°55' W 090°13'0 0.0
2017-Jan-14 09:33N 38°55' W 090°13'0 0.0
2017-Jan-14 08:30N 38°55' W 090°13'0 0.0
2017-Jan-14 07:33N 38°55' W 090°13'0 0.0
2017-Jan-14 06:33N 38°55' W 090°13'0 0.0
2017-Jan-14 05:33N 38°55' W 090°13'0 0.0
2017-Jan-14 04:33N 38°55' W 090°13'0 0.0
2017-Jan-14 03:32N 38°55' W 090°13'0 0.0
2017-Jan-13 23:33N 38°55' W 090°13'4 1.8
2017-Jan-13 21:31N 38°55' W 090°18'6 6.6
2017-Jan-13 20:33N 38°58' W 090°26'5 5.0
2017-Jan-13 19:33N 38°57' W 090°32'  
Track history (hours):
 
Tides and Currents Weather Stations Pressure Air Temp Water Temp Dewpoint Dewpoint Depression Visibility Wind Speed Wind Dir Waves Ship Positions

Cooperative Ambassador

Owner: American River Transportation Company, St Louis, MO. More information available from US FCC via Universal Licensing System and Coast Guard Vessel Documentation Center.

Last reported at 2017-Jan-17 19:12 UTC. Time now 2017-Mar-24 10:24 UTC.
Position N 38°59' W 090°33'.
Warning: this ship's position is months out of date.

Length 43 m.

Type: Towing. MMSI: 366984260.

Date/timePositionNaut miles runAvg speedWind from/ knotsBaromVisibWave heightAir tempDewpointWater temp
2017-Jan-17 19:12N 38°59' W 090°33'3 4.1
2017-Jan-17 18:33N 38°57' W 090°31'4 3.9
2017-Jan-17 17:33N 38°58' W 090°26'5 4.5
2017-Jan-17 16:33N 38°56' W 090°20'2 1.3
2017-Jan-17 15:15N 38°55' W 090°19'4 0.1
2017-Jan-15 13:14N 38°55' W 090°14'0 0.1
2017-Jan-15 12:25N 38°55' W 090°13'0 0.0
2017-Jan-15 11:33N 38°55' W 090°13'0 0.0
2017-Jan-15 10:29N 38°55' W 090°13'0 0.0
2017-Jan-15 09:24N 38°55' W 090°13'0 0.0
2017-Jan-15 08:28N 38°55' W 090°13'0 0.0
2017-Jan-15 07:31N 38°55' W 090°13'0 0.0
2017-Jan-15 06:29N 38°55' W 090°13'0 0.0
2017-Jan-15 05:33N 38°55' W 090°13'0 0.0
2017-Jan-15 04:33N 38°55' W 090°13'0 0.0
2017-Jan-15 03:33N 38°55' W 090°13'0 0.0
2017-Jan-15 02:33N 38°55' W 090°13'0 0.0
2017-Jan-15 01:20N 38°55' W 090°13'0 0.0
2017-Jan-15 00:33N 38°55' W 090°13'0 0.0
2017-Jan-14 23:33N 38°55' W 090°13'0 0.0
2017-Jan-14 22:33N 38°55' W 090°13'0 0.0
2017-Jan-14 21:33N 38°55' W 090°13'0 0.0
2017-Jan-14 20:32N 38°55' W 090°13'0 0.0
2017-Jan-14 18:11N 38°55' W 090°13'0 0.0
2017-Jan-14 16:23N 38°55' W 090°13'0 0.0
2017-Jan-14 15:33N 38°55' W 090°13'0 0.0
2017-Jan-14 14:32N 38°55' W 090°13'0 0.0
2017-Jan-14 13:33N 38°55' W 090°13'0 0.0
2017-Jan-14 12:32N 38°55' W 090°13'0 0.0
2017-Jan-14 11:31N 38°55' W 090°13'0 0.0
2017-Jan-14 10:33N 38°55' W 090°13'0 0.0
2017-Jan-14 09:33N 38°55' W 090°13'0 0.0
2017-Jan-14 08:30N 38°55' W 090°13'0 0.0
2017-Jan-14 07:33N 38°55' W 090°13'0 0.0
2017-Jan-14 06:33N 38°55' W 090°13'0 0.0
2017-Jan-14 05:33N 38°55' W 090°13'0 0.0
2017-Jan-14 04:33N 38°55' W 090°13'0 0.0
2017-Jan-14 03:32N 38°55' W 090°13'0 0.0
2017-Jan-13 23:33N 38°55' W 090°13'4 1.8
2017-Jan-13 21:31N 38°55' W 090°18'6 6.6
2017-Jan-13 20:33N 38°58' W 090°26'5 5.0
2017-Jan-13 19:33N 38°57' W 090°32'  

Dump ship's entire track history